world map with AOR marked

AOR - Airport

This information may not be accurate or current and is not valid for navigation or flight planning. No warranty of fitness for any purpose is made or implied.

flag of Kedahflag of Malaysia

Donate via PayPal

Additional information is available on the NEW Great Circle Mapper

Location
City:  Alor Setar, Kedah, Malaysia
Name:Sultan Abdul Halim
ICAO / IATA:WMKA / AOR

Details
Type:Airport (Aerodrome, Airfield)
Use:Public/Civil, Military
Latitude:6°11'23"N (6.189667)
Longitude:100°23'53"E (100.398183)
Datum:WGS 1984
Elevation:15 ft (5 m)
Runways:1
Longest:9005 × 151 ft (2745 × 46 m)

Time
Timezone:UTC+8 (DST+10)
Local Time:

Weather
METAR:WMKA  132100Z 03003KT 340V100 9999 SCT030 SCT140 BKN280 25/25 Q1007
TAF:WMKA  (expired)

Related Locations
Nearby:
Farthest:CIX: 12388 mi / 19937 km
Chiclayo [Captaán FAP José Abelardo Quiñones Gonzáles Intl], LAM, PE

Find:

   beyond  
but within

Other Information
Maps:
Sources:

  


 


Great Circle Mapper   Great Circle Mapper
Great Circle Mapper FAQ   Great Circle Mapper FAQ
  Karl's Home Page
KLS²   KLS² Home
   GC on Facebook
Airlines of the World   Airlines of the World
Donate via PayPal


Copyright © 2004-2018, Karl L. Swartz. All rights reserved.
All trademarks mentioned herein belong to their respective owners.

Please see credits for attribution and copyright information.

Karl Swartz <karl@kls2.com>
  Powered by FreeBSD
Valid HTML 4.01!
Labeled with ICRA
hCard Microformat
Geo Microformat